sensor_id;sensor_type;location;lat;lon;timestamp;P1;durP1;ratioP1;P2;durP2;ratioP2
53977;SDS011;39886;47.984;-1.586;2023-06-14T00:02:08;4.40;;;4.00;;
53977;SDS011;39886;47.984;-1.586;2023-06-14T00:04:34;4.15;;;3.78;;
53977;SDS011;39886;47.984;-1.586;2023-06-14T00:07:01;4.13;;;3.72;;
53977;SDS011;39886;47.984;-1.586;2023-06-14T00:09:27;4.63;;;4.22;;
53977;SDS011;39886;47.984;-1.586;2023-06-14T00:11:53;4.40;;;4.00;;
53977;SDS011;39886;47.984;-1.586;2023-06-14T00:14:18;4.80;;;4.30;;
53977;SDS011;39886;47.984;-1.586;2023-06-14T00:16:44;4.43;;;4.03;;
53977;SDS011;39886;47.984;-1.586;2023-06-14T00:19:10;4.40;;;4.00;;
53977;SDS011;39886;47.984;-1.586;2023-06-14T00:21:37;4.20;;;3.80;;
53977;SDS011;39886;47.984;-1.586;2023-06-14T00:24:03;4.82;;;3.65;;
53977;SDS011;39886;47.984;-1.586;2023-06-14T00:26:30;4.15;;;3.75;;
53977;SDS011;39886;47.984;-1.586;2023-06-14T00:28:55;4.20;;;3.70;;
53977;SDS011;39886;47.984;-1.586;2023-06-14T00:31:22;4.28;;;3.88;;
53977;SDS011;39886;47.984;-1.586;2023-06-14T00:33:48;4.82;;;4.38;;
53977;SDS011;39886;47.984;-1.586;2023-06-14T00:36:13;4.93;;;4.05;;
53977;SDS011;39886;47.984;-1.586;2023-06-14T00:38:39;4.32;;;3.88;;
53977;SDS011;39886;47.984;-1.586;2023-06-14T00:41:05;4.60;;;3.92;;
53977;SDS011;39886;47.984;-1.586;2023-06-14T00:43:31;4.47;;;4.05;;
53977;SDS011;39886;47.984;-1.586;2023-06-14T00:45:57;4.60;;;4.15;;
53977;SDS011;39886;47.984;-1.586;2023-06-14T00:48:23;4.10;;;3.70;;
53977;SDS011;39886;47.984;-1.586;2023-06-14T00:50:50;4.53;;;4.13;;
53977;SDS011;39886;47.984;-1.586;2023-06-14T00:53:17;4.28;;;3.88;;
53977;SDS011;39886;47.984;-1.586;2023-06-14T00:55:45;4.40;;;4.00;;
53977;SDS011;39886;47.984;-1.586;2023-06-14T00:58:12;5.13;;;4.32;;
53977;SDS011;39886;47.984;-1.586;2023-06-14T01:00:38;4.40;;;4.00;;
53977;SDS011;39886;47.984;-1.586;2023-06-14T01:03:04;4.38;;;3.97;;
53977;SDS011;39886;47.984;-1.586;2023-06-14T01:05:30;4.60;;;4.20;;
53977;SDS011;39886;47.984;-1.586;2023-06-14T01:10:32;4.22;;;3.83;;
53977;SDS011;39886;47.984;-1.586;2023-06-14T01:13:20;4.13;;;3.72;;
53977;SDS011;39886;47.984;-1.586;2023-06-14T01:15:52;4.03;;;3.63;;
53977;SDS011;39886;47.984;-1.586;2023-06-14T01:18:20;4.10;;;3.70;;
53977;SDS011;39886;47.984;-1.586;2023-06-14T01:20:49;4.15;;;3.75;;
53977;SDS011;39886;47.984;-1.586;2023-06-14T01:23:19;4.18;;;3.78;;
53977;SDS011;39886;47.984;-1.586;2023-06-14T01:25:45;4.03;;;3.72;;
53977;SDS011;39886;47.984;-1.586;2023-06-14T01:28:12;4.22;;;3.80;;
53977;SDS011;39886;47.984;-1.586;2023-06-14T01:30:40;4.35;;;4.03;;
53977;SDS011;39886;47.984;-1.586;2023-06-14T01:33:14;4.30;;;3.90;;
53977;SDS011;39886;47.984;-1.586;2023-06-14T01:35:44;4.10;;;3.70;;
53977;SDS011;39886;47.984;-1.586;2023-06-14T01:38:11;4.30;;;3.90;;
53977;SDS011;39886;47.984;-1.586;2023-06-14T01:40:38;4.85;;;4.38;;
53977;SDS011;39886;47.984;-1.586;2023-06-14T01:43:05;4.95;;;3.88;;
53977;SDS011;39886;47.984;-1.586;2023-06-14T01:45:32;4.38;;;3.97;;
53977;SDS011;39886;47.984;-1.586;2023-06-14T01:47:59;4.32;;;3.92;;
53977;SDS011;39886;47.984;-1.586;2023-06-14T01:50:31;4.18;;;3.78;;
53977;SDS011;39886;47.984;-1.586;2023-06-14T01:52:57;3.90;;;3.53;;
53977;SDS011;39886;47.984;-1.586;2023-06-14T01:55:23;4.53;;;4.13;;
53977;SDS011;39886;47.984;-1.586;2023-06-14T01:57:52;4.10;;;3.70;;
53977;SDS011;39886;47.984;-1.586;2023-06-14T02:00:18;4.65;;;4.15;;
53977;SDS011;39886;47.984;-1.586;2023-06-14T02:02:46;4.32;;;3.90;;
53977;SDS011;39886;47.984;-1.586;2023-06-14T02:05:12;3.90;;;3.60;;
53977;SDS011;39886;47.984;-1.586;2023-06-14T02:07:38;4.35;;;3.95;;
53977;SDS011;39886;47.984;-1.586;2023-06-14T02:10:05;4.18;;;3.78;;
53977;SDS011;39886;47.984;-1.586;2023-06-14T02:12:31;4.53;;;4.13;;
53977;SDS011;39886;47.984;-1.586;2023-06-14T02:14:57;4.97;;;4.25;;
53977;SDS011;39886;47.984;-1.586;2023-06-14T02:17:23;4.57;;;4.10;;
53977;SDS011;39886;47.984;-1.586;2023-06-14T02:19:49;4.55;;;4.15;;
53977;SDS011;39886;47.984;-1.586;2023-06-14T02:22:15;4.25;;;3.85;;
53977;SDS011;39886;47.984;-1.586;2023-06-14T02:24:42;4.35;;;3.95;;
53977;SDS011;39886;47.984;-1.586;2023-06-14T02:27:07;4.55;;;4.15;;
53977;SDS011;39886;47.984;-1.586;2023-06-14T02:29:36;4.32;;;3.90;;
53977;SDS011;39886;47.984;-1.586;2023-06-14T02:32:02;4.32;;;3.92;;
53977;SDS011;39886;47.984;-1.586;2023-06-14T02:34:32;4.18;;;3.78;;
53977;SDS011;39886;47.984;-1.586;2023-06-14T02:36:59;4.40;;;4.00;;
53977;SDS011;39886;47.984;-1.586;2023-06-14T02:39:27;4.55;;;4.15;;
53977;SDS011;39886;47.984;-1.586;2023-06-14T02:41:53;3.80;;;3.50;;
53977;SDS011;39886;47.984;-1.586;2023-06-14T02:44:19;4.57;;;4.18;;
53977;SDS011;39886;47.984;-1.586;2023-06-14T02:46:49;4.68;;;4.05;;
53977;SDS011;39886;47.984;-1.586;2023-06-14T02:49:14;4.45;;;4.05;;
53977;SDS011;39886;47.984;-1.586;2023-06-14T02:51:40;4.30;;;3.90;;
53977;SDS011;39886;47.984;-1.586;2023-06-14T02:54:06;3.85;;;3.45;;
53977;SDS011;39886;47.984;-1.586;2023-06-14T02:56:31;4.60;;;4.10;;
53977;SDS011;39886;47.984;-1.586;2023-06-14T02:58:57;4.13;;;3.75;;
53977;SDS011;39886;47.984;-1.586;2023-06-14T03:01:25;4.60;;;3.83;;
53977;SDS011;39886;47.984;-1.586;2023-06-14T03:03:58;3.83;;;3.53;;
53977;SDS011;39886;47.984;-1.586;2023-06-14T03:06:24;4.60;;;4.05;;
53977;SDS011;39886;47.984;-1.586;2023-06-14T03:08:50;4.18;;;3.78;;
53977;SDS011;39886;47.984;-1.586;2023-06-14T03:11:16;5.35;;;3.80;;
53977;SDS011;39886;47.984;-1.586;2023-06-14T03:13:45;4.30;;;3.90;;
53977;SDS011;39886;47.984;-1.586;2023-06-14T03:16:12;4.40;;;4.07;;
53977;SDS011;39886;47.984;-1.586;2023-06-14T03:18:37;4.30;;;3.90;;
53977;SDS011;39886;47.984;-1.586;2023-06-14T03:21:03;4.65;;;4.25;;
53977;SDS011;39886;47.984;-1.586;2023-06-14T03:23:30;3.95;;;3.55;;
53977;SDS011;39886;47.984;-1.586;2023-06-14T03:25:56;4.50;;;4.10;;
53977;SDS011;39886;47.984;-1.586;2023-06-14T03:28:22;4.15;;;3.75;;
53977;SDS011;39886;47.984;-1.586;2023-06-14T03:30:48;4.95;;;4.05;;
53977;SDS011;39886;47.984;-1.586;2023-06-14T03:33:14;4.35;;;3.95;;
53977;SDS011;39886;47.984;-1.586;2023-06-14T03:35:40;4.20;;;3.80;;
53977;SDS011;39886;47.984;-1.586;2023-06-14T03:38:06;5.97;;;4.35;;
53977;SDS011;39886;47.984;-1.586;2023-06-14T03:40:32;4.47;;;4.07;;
53977;SDS011;39886;47.984;-1.586;2023-06-14T03:42:58;4.90;;;3.90;;
53977;SDS011;39886;47.984;-1.586;2023-06-14T03:45:23;4.30;;;3.90;;
53977;SDS011;39886;47.984;-1.586;2023-06-14T03:47:49;4.30;;;3.72;;
53977;SDS011;39886;47.984;-1.586;2023-06-14T03:50:15;4.10;;;3.70;;
53977;SDS011;39886;47.984;-1.586;2023-06-14T03:52:42;4.72;;;4.20;;
53977;SDS011;39886;47.984;-1.586;2023-06-14T03:55:09;4.50;;;4.10;;
53977;SDS011;39886;47.984;-1.586;2023-06-14T03:57:35;4.68;;;4.25;;
53977;SDS011;39886;47.984;-1.586;2023-06-14T04:00:01;4.22;;;3.83;;
53977;SDS011;39886;47.984;-1.586;2023-06-14T04:02:30;4.80;;;3.92;;
53977;SDS011;39886;47.984;-1.586;2023-06-14T04:04:56;4.20;;;3.90;;
53977;SDS011;39886;47.984;-1.586;2023-06-14T04:07:21;4.35;;;3.95;;
53977;SDS011;39886;47.984;-1.586;2023-06-14T04:09:48;4.90;;;4.40;;
53977;SDS011;39886;47.984;-1.586;2023-06-14T04:12:14;4.25;;;3.85;;
53977;SDS011;39886;47.984;-1.586;2023-06-14T04:14:40;4.50;;;4.10;;
53977;SDS011;39886;47.984;-1.586;2023-06-14T04:17:06;4.18;;;3.78;;
53977;SDS011;39886;47.984;-1.586;2023-06-14T04:19:32;4.90;;;4.40;;
53977;SDS011;39886;47.984;-1.586;2023-06-14T04:21:58;4.50;;;4.10;;
53977;SDS011;39886;47.984;-1.586;2023-06-14T04:24:26;4.00;;;3.70;;
53977;SDS011;39886;47.984;-1.586;2023-06-14T04:26:57;3.97;;;3.65;;
53977;SDS011;39886;47.984;-1.586;2023-06-14T04:29:26;4.35;;;3.95;;
53977;SDS011;39886;47.984;-1.586;2023-06-14T04:31:54;4.28;;;3.58;;
53977;SDS011;39886;47.984;-1.586;2023-06-14T04:34:24;4.40;;;4.00;;
53977;SDS011;39886;47.984;-1.586;2023-06-14T04:36:57;3.72;;;3.42;;
53977;SDS011;39886;47.984;-1.586;2023-06-14T04:39:24;3.95;;;3.65;;
53977;SDS011;39886;47.984;-1.586;2023-06-14T04:41:51;4.10;;;3.70;;
53977;SDS011;39886;47.984;-1.586;2023-06-14T04:44:22;4.15;;;3.75;;
53977;SDS011;39886;47.984;-1.586;2023-06-14T04:46:55;4.57;;;4.18;;
53977;SDS011;39886;47.984;-1.586;2023-06-14T04:49:21;4.28;;;3.88;;
53977;SDS011;39886;47.984;-1.586;2023-06-14T04:51:48;4.53;;;4.05;;
53977;SDS011;39886;47.984;-1.586;2023-06-14T04:54:22;4.28;;;3.88;;
53977;SDS011;39886;47.984;-1.586;2023-06-14T04:56:49;4.30;;;3.90;;
53977;SDS011;39886;47.984;-1.586;2023-06-14T04:59:15;3.97;;;3.58;;
53977;SDS011;39886;47.984;-1.586;2023-06-14T05:01:42;4.03;;;3.63;;
53977;SDS011;39886;47.984;-1.586;2023-06-14T05:04:17;4.03;;;3.63;;
53977;SDS011;39886;47.984;-1.586;2023-06-14T05:06:43;4.63;;;3.80;;
53977;SDS011;39886;47.984;-1.586;2023-06-14T05:09:10;4.68;;;4.07;;
53977;SDS011;39886;47.984;-1.586;2023-06-14T05:11:36;4.10;;;3.70;;
53977;SDS011;39886;47.984;-1.586;2023-06-14T05:14:02;4.53;;;4.13;;
53977;SDS011;39886;47.984;-1.586;2023-06-14T05:16:28;4.35;;;3.95;;
53977;SDS011;39886;47.984;-1.586;2023-06-14T05:18:54;5.35;;;4.25;;
53977;SDS011;39886;47.984;-1.586;2023-06-14T05:21:20;4.10;;;3.70;;
53977;SDS011;39886;47.984;-1.586;2023-06-14T05:23:46;3.95;;;3.65;;
53977;SDS011;39886;47.984;-1.586;2023-06-14T05:26:12;4.25;;;3.72;;
53977;SDS011;39886;47.984;-1.586;2023-06-14T05:28:38;5.15;;;4.03;;
53977;SDS011;39886;47.984;-1.586;2023-06-14T05:31:04;4.30;;;3.90;;
53977;SDS011;39886;47.984;-1.586;2023-06-14T05:33:30;4.10;;;3.70;;
53977;SDS011;39886;47.984;-1.586;2023-06-14T05:35:55;3.92;;;3.53;;
53977;SDS011;39886;47.984;-1.586;2023-06-14T05:38:21;4.40;;;4.00;;
53977;SDS011;39886;47.984;-1.586;2023-06-14T05:40:47;3.80;;;3.50;;
53977;SDS011;39886;47.984;-1.586;2023-06-14T05:43:12;4.22;;;3.83;;
53977;SDS011;39886;47.984;-1.586;2023-06-14T05:45:38;3.90;;;3.55;;
53977;SDS011;39886;47.984;-1.586;2023-06-14T05:48:04;4.40;;;3.95;;
53977;SDS011;39886;47.984;-1.586;2023-06-14T05:50:30;5.38;;;4.10;;
53977;SDS011;39886;47.984;-1.586;2023-06-14T05:52:56;4.18;;;3.78;;
53977;SDS011;39886;47.984;-1.586;2023-06-14T05:55:21;3.60;;;3.28;;
53977;SDS011;39886;47.984;-1.586;2023-06-14T05:57:47;3.83;;;3.45;;
53977;SDS011;39886;47.984;-1.586;2023-06-14T06:00:13;4.20;;;3.80;;
53977;SDS011;39886;47.984;-1.586;2023-06-14T06:02:40;4.03;;;3.72;;
53977;SDS011;39886;47.984;-1.586;2023-06-14T06:05:08;3.95;;;3.65;;
53977;SDS011;39886;47.984;-1.586;2023-06-14T06:07:37;3.67;;;3.38;;
53977;SDS011;39886;47.984;-1.586;2023-06-14T06:10:07;4.13;;;3.72;;
53977;SDS011;39886;47.984;-1.586;2023-06-14T06:12:33;3.75;;;3.35;;
53977;SDS011;39886;47.984;-1.586;2023-06-14T06:14:59;3.90;;;3.60;;
53977;SDS011;39886;47.984;-1.586;2023-06-14T06:17:27;5.45;;;4.40;;
53977;SDS011;39886;47.984;-1.586;2023-06-14T06:19:53;10.23;;;7.05;;
53977;SDS011;39886;47.984;-1.586;2023-06-14T06:22:19;10.57;;;8.07;;
53977;SDS011;39886;47.984;-1.586;2023-06-14T06:24:45;16.10;;;9.75;;
53977;SDS011;39886;47.984;-1.586;2023-06-14T06:27:11;14.23;;;8.98;;
53977;SDS011;39886;47.984;-1.586;2023-06-14T06:29:37;16.48;;;11.38;;
53977;SDS011;39886;47.984;-1.586;2023-06-14T06:32:03;15.55;;;10.85;;
53977;SDS011;39886;47.984;-1.586;2023-06-14T06:34:30;14.85;;;10.43;;
53977;SDS011;39886;47.984;-1.586;2023-06-14T06:36:55;16.42;;;11.43;;
53977;SDS011;39886;47.984;-1.586;2023-06-14T06:39:21;17.25;;;11.48;;
53977;SDS011;39886;47.984;-1.586;2023-06-14T06:41:47;19.67;;;12.82;;
53977;SDS011;39886;47.984;-1.586;2023-06-14T06:44:12;19.67;;;13.05;;
53977;SDS011;39886;47.984;-1.586;2023-06-14T06:46:38;14.80;;;11.27;;
53977;SDS011;39886;47.984;-1.586;2023-06-14T06:49:06;21.20;;;12.27;;
53977;SDS011;39886;47.984;-1.586;2023-06-14T06:51:34;18.00;;;12.02;;
53977;SDS011;39886;47.984;-1.586;2023-06-14T06:54:01;16.70;;;11.13;;
53977;SDS011;39886;47.984;-1.586;2023-06-14T06:56:27;22.95;;;11.65;;
53977;SDS011;39886;47.984;-1.586;2023-06-14T06:58:53;17.08;;;11.57;;
53977;SDS011;39886;47.984;-1.586;2023-06-14T07:01:19;18.90;;;12.15;;
53977;SDS011;39886;47.984;-1.586;2023-06-14T07:03:45;17.48;;;10.60;;
53977;SDS011;39886;47.984;-1.586;2023-06-14T07:06:11;16.23;;;10.38;;
53977;SDS011;39886;47.984;-1.586;2023-06-14T07:08:37;20.45;;;10.85;;
53977;SDS011;39886;47.984;-1.586;2023-06-14T07:11:06;24.95;;;11.52;;
53977;SDS011;39886;47.984;-1.586;2023-06-14T07:13:32;17.02;;;9.90;;
53977;SDS011;39886;47.984;-1.586;2023-06-14T07:15:58;15.52;;;10.13;;
53977;SDS011;39886;47.984;-1.586;2023-06-14T07:18:25;13.70;;;10.05;;
53977;SDS011;39886;47.984;-1.586;2023-06-14T07:20:52;16.38;;;8.32;;
53977;SDS011;39886;47.984;-1.586;2023-06-14T07:23:21;14.77;;;8.90;;
53977;SDS011;39886;47.984;-1.586;2023-06-14T07:25:46;13.20;;;8.88;;
53977;SDS011;39886;47.984;-1.586;2023-06-14T07:28:12;16.40;;;10.23;;
53977;SDS011;39886;47.984;-1.586;2023-06-14T07:30:38;14.50;;;8.65;;
53977;SDS011;39886;47.984;-1.586;2023-06-14T07:33:03;15.65;;;9.05;;
53977;SDS011;39886;47.984;-1.586;2023-06-14T07:35:29;16.48;;;9.55;;
53977;SDS011;39886;47.984;-1.586;2023-06-14T07:37:55;18.02;;;9.93;;
53977;SDS011;39886;47.984;-1.586;2023-06-14T07:40:21;18.80;;;10.50;;
53977;SDS011;39886;47.984;-1.586;2023-06-14T07:42:46;16.42;;;9.48;;
53977;SDS011;39886;47.984;-1.586;2023-06-14T07:45:13;14.48;;;8.73;;
53977;SDS011;39886;47.984;-1.586;2023-06-14T07:47:39;16.77;;;11.02;;
53977;SDS011;39886;47.984;-1.586;2023-06-14T07:50:05;16.42;;;11.10;;
53977;SDS011;39886;47.984;-1.586;2023-06-14T07:52:31;17.45;;;12.18;;
53977;SDS011;39886;47.984;-1.586;2023-06-14T07:54:56;17.40;;;11.48;;
53977;SDS011;39886;47.984;-1.586;2023-06-14T07:57:23;17.00;;;11.57;;
53977;SDS011;39886;47.984;-1.586;2023-06-14T07:59:49;16.35;;;11.20;;
53977;SDS011;39886;47.984;-1.586;2023-06-14T08:02:15;18.77;;;10.50;;
53977;SDS011;39886;47.984;-1.586;2023-06-14T08:04:41;19.65;;;10.88;;
53977;SDS011;39886;47.984;-1.586;2023-06-14T08:07:07;15.65;;;10.52;;
53977;SDS011;39886;47.984;-1.586;2023-06-14T08:09:35;14.15;;;10.50;;
53977;SDS011;39886;47.984;-1.586;2023-06-14T08:12:03;17.25;;;11.30;;
53977;SDS011;39886;47.984;-1.586;2023-06-14T08:14:32;15.45;;;10.35;;
53977;SDS011;39886;47.984;-1.586;2023-06-14T08:16:58;15.25;;;10.38;;
53977;SDS011;39886;47.984;-1.586;2023-06-14T08:19:24;14.88;;;9.60;;
53977;SDS011;39886;47.984;-1.586;2023-06-14T08:21:50;16.65;;;9.30;;
53977;SDS011;39886;47.984;-1.586;2023-06-14T08:24:16;17.05;;;10.48;;
53977;SDS011;39886;47.984;-1.586;2023-06-14T08:26:42;14.13;;;8.70;;
53977;SDS011;39886;47.984;-1.586;2023-06-14T08:29:07;13.57;;;10.05;;
53977;SDS011;39886;47.984;-1.586;2023-06-14T08:31:33;15.57;;;9.32;;
53977;SDS011;39886;47.984;-1.586;2023-06-14T08:33:59;15.35;;;8.90;;
53977;SDS011;39886;47.984;-1.586;2023-06-14T08:36:25;17.60;;;9.02;;
53977;SDS011;39886;47.984;-1.586;2023-06-14T08:38:50;15.75;;;10.65;;
53977;SDS011;39886;47.984;-1.586;2023-06-14T08:41:25;16.40;;;9.07;;
53977;SDS011;39886;47.984;-1.586;2023-06-14T08:43:52;10.75;;;9.18;;
53977;SDS011;39886;47.984;-1.586;2023-06-14T08:46:18;13.63;;;8.13;;
53977;SDS011;39886;47.984;-1.586;2023-06-14T08:48:50;11.63;;;7.53;;
53977;SDS011;39886;47.984;-1.586;2023-06-14T08:51:20;17.80;;;8.13;;
53977;SDS011;39886;47.984;-1.586;2023-06-14T08:53:57;16.70;;;9.20;;
53977;SDS011;39886;47.984;-1.586;2023-06-14T08:56:26;16.95;;;8.82;;
53977;SDS011;39886;47.984;-1.586;2023-06-14T08:58:54;17.35;;;9.00;;
53977;SDS011;39886;47.984;-1.586;2023-06-14T09:01:21;14.20;;;9.00;;
53977;SDS011;39886;47.984;-1.586;2023-06-14T09:03:48;21.73;;;9.70;;
53977;SDS011;39886;47.984;-1.586;2023-06-14T09:06:15;22.75;;;9.70;;
53977;SDS011;39886;47.984;-1.586;2023-06-14T09:08:45;19.52;;;9.20;;
53977;SDS011;39886;47.984;-1.586;2023-06-14T09:11:11;17.67;;;8.27;;
53977;SDS011;39886;47.984;-1.586;2023-06-14T09:13:38;13.55;;;8.25;;
53977;SDS011;39886;47.984;-1.586;2023-06-14T09:16:05;15.25;;;8.48;;
53977;SDS011;39886;47.984;-1.586;2023-06-14T09:18:38;12.73;;;8.45;;
53977;SDS011;39886;47.984;-1.586;2023-06-14T09:21:10;14.48;;;8.80;;
53977;SDS011;39886;47.984;-1.586;2023-06-14T09:23:37;16.10;;;8.85;;
53977;SDS011;39886;47.984;-1.586;2023-06-14T09:26:09;10.93;;;8.02;;
53977;SDS011;39886;47.984;-1.586;2023-06-14T09:28:46;16.83;;;8.23;;
53977;SDS011;39886;47.984;-1.586;2023-06-14T09:31:13;12.90;;;7.40;;
53977;SDS011;39886;47.984;-1.586;2023-06-14T09:33:47;14.70;;;8.65;;
53977;SDS011;39886;47.984;-1.586;2023-06-14T09:36:17;14.93;;;8.85;;
53977;SDS011;39886;47.984;-1.586;2023-06-14T09:38:55;10.90;;;8.30;;
53977;SDS011;39886;47.984;-1.586;2023-06-14T09:41:32;15.52;;;8.45;;
53977;SDS011;39886;47.984;-1.586;2023-06-14T09:44:02;14.38;;;8.35;;
53977;SDS011;39886;47.984;-1.586;2023-06-14T09:46:32;11.20;;;7.85;;
53977;SDS011;39886;47.984;-1.586;2023-06-14T09:48:58;12.70;;;8.30;;
53977;SDS011;39886;47.984;-1.586;2023-06-14T09:51:25;10.27;;;7.72;;
53977;SDS011;39886;47.984;-1.586;2023-06-14T09:53:52;13.60;;;8.27;;
53977;SDS011;39886;47.984;-1.586;2023-06-14T09:56:29;10.55;;;7.90;;
53977;SDS011;39886;47.984;-1.586;2023-06-14T09:58:57;15.50;;;8.32;;
53977;SDS011;39886;47.984;-1.586;2023-06-14T10:01:24;13.63;;;7.45;;
53977;SDS011;39886;47.984;-1.586;2023-06-14T10:03:55;14.52;;;8.00;;
53977;SDS011;39886;47.984;-1.586;2023-06-14T10:06:27;11.68;;;7.32;;
53977;SDS011;39886;47.984;-1.586;2023-06-14T10:08:56;10.07;;;7.80;;
53977;SDS011;39886;47.984;-1.586;2023-06-14T10:11:25;15.13;;;8.45;;
53977;SDS011;39886;47.984;-1.586;2023-06-14T10:13:51;10.90;;;8.02;;
53977;SDS011;39886;47.984;-1.586;2023-06-14T10:21:51;15.40;;;7.50;;
53977;SDS011;39886;47.984;-1.586;2023-06-14T10:24:32;15.55;;;8.15;;
53977;SDS011;39886;47.984;-1.586;2023-06-14T10:27:01;13.90;;;7.22;;
53977;SDS011;39886;47.984;-1.586;2023-06-14T10:29:29;14.00;;;7.20;;
53977;SDS011;39886;47.984;-1.586;2023-06-14T10:31:58;9.27;;;7.25;;
53977;SDS011;39886;47.984;-1.586;2023-06-14T10:34:28;11.10;;;7.28;;
53977;SDS011;39886;47.984;-1.586;2023-06-14T10:37:04;10.93;;;6.72;;
53977;SDS011;39886;47.984;-1.586;2023-06-14T10:39:36;11.80;;;7.35;;
53977;SDS011;39886;47.984;-1.586;2023-06-14T10:42:14;10.10;;;6.75;;
53977;SDS011;39886;47.984;-1.586;2023-06-14T10:44:41;9.88;;;7.85;;
53977;SDS011;39886;47.984;-1.586;2023-06-14T10:47:19;9.13;;;6.70;;
53977;SDS011;39886;47.984;-1.586;2023-06-14T10:49:58;13.07;;;7.45;;
53977;SDS011;39886;47.984;-1.586;2023-06-14T10:52:39;16.20;;;6.70;;
53977;SDS011;39886;47.984;-1.586;2023-06-14T11:00:16;9.95;;;7.50;;
53977;SDS011;39886;47.984;-1.586;2023-06-14T11:02:46;9.00;;;6.90;;
53977;SDS011;39886;47.984;-1.586;2023-06-14T11:05:16;11.50;;;7.15;;
53977;SDS011;39886;47.984;-1.586;2023-06-14T11:10:48;8.98;;;7.00;;
53977;SDS011;39886;47.984;-1.586;2023-06-14T11:13:18;14.93;;;7.07;;
53977;SDS011;39886;47.984;-1.586;2023-06-14T11:15:45;12.18;;;7.40;;
53977;SDS011;39886;47.984;-1.586;2023-06-14T11:18:14;9.27;;;6.93;;
53977;SDS011;39886;47.984;-1.586;2023-06-14T11:20:41;8.95;;;7.10;;
53977;SDS011;39886;47.984;-1.586;2023-06-14T11:23:07;9.60;;;6.55;;
53977;SDS011;39886;47.984;-1.586;2023-06-14T11:25:33;10.18;;;7.55;;
53977;SDS011;39886;47.984;-1.586;2023-06-14T11:27:59;10.10;;;7.00;;
53977;SDS011;39886;47.984;-1.586;2023-06-14T11:30:25;10.82;;;7.20;;
53977;SDS011;39886;47.984;-1.586;2023-06-14T11:32:51;10.05;;;7.07;;
53977;SDS011;39886;47.984;-1.586;2023-06-14T11:35:18;12.00;;;6.72;;
53977;SDS011;39886;47.984;-1.586;2023-06-14T11:40:25;11.70;;;7.45;;
53977;SDS011;39886;47.984;-1.586;2023-06-14T11:42:59;12.02;;;7.30;;
53977;SDS011;39886;47.984;-1.586;2023-06-14T11:45:26;9.25;;;6.70;;
53977;SDS011;39886;47.984;-1.586;2023-06-14T11:47:54;11.10;;;7.13;;
53977;SDS011;39886;47.984;-1.586;2023-06-14T11:50:23;10.05;;;7.05;;
53977;SDS011;39886;47.984;-1.586;2023-06-14T11:52:57;14.77;;;7.50;;
53977;SDS011;39886;47.984;-1.586;2023-06-14T11:55:38;9.07;;;6.65;;
53977;SDS011;39886;47.984;-1.586;2023-06-14T11:58:05;10.68;;;6.93;;
53977;SDS011;39886;47.984;-1.586;2023-06-14T12:00:31;13.35;;;7.35;;
53977;SDS011;39886;47.984;-1.586;2023-06-14T12:02:58;10.00;;;6.95;;
53977;SDS011;39886;47.984;-1.586;2023-06-14T12:05:24;10.02;;;6.20;;
53977;SDS011;39886;47.984;-1.586;2023-06-14T12:07:57;16.75;;;7.40;;
53977;SDS011;39886;47.984;-1.586;2023-06-14T12:10:25;10.65;;;6.63;;
53977;SDS011;39886;47.984;-1.586;2023-06-14T12:12:56;9.00;;;7.28;;
53977;SDS011;39886;47.984;-1.586;2023-06-14T12:15:24;11.18;;;7.45;;
53977;SDS011;39886;47.984;-1.586;2023-06-14T12:17:54;12.52;;;6.95;;
53977;SDS011;39886;47.984;-1.586;2023-06-14T12:20:20;13.07;;;7.85;;
53977;SDS011;39886;47.984;-1.586;2023-06-14T12:22:50;8.30;;;6.65;;
53977;SDS011;39886;47.984;-1.586;2023-06-14T12:25:28;9.38;;;6.95;;
53977;SDS011;39886;47.984;-1.586;2023-06-14T12:27:58;9.07;;;7.05;;
53977;SDS011;39886;47.984;-1.586;2023-06-14T12:30:28;9.23;;;6.65;;
53977;SDS011;39886;47.984;-1.586;2023-06-14T12:32:54;13.88;;;7.75;;
53977;SDS011;39886;47.984;-1.586;2023-06-14T12:35:19;9.43;;;7.05;;
53977;SDS011;39886;47.984;-1.586;2023-06-14T12:37:46;11.68;;;7.10;;
53977;SDS011;39886;47.984;-1.586;2023-06-14T12:40:12;12.13;;;7.15;;
53977;SDS011;39886;47.984;-1.586;2023-06-14T12:42:39;9.85;;;6.95;;
53977;SDS011;39886;47.984;-1.586;2023-06-14T12:45:06;10.93;;;7.22;;
53977;SDS011;39886;47.984;-1.586;2023-06-14T12:47:32;12.48;;;7.47;;
53977;SDS011;39886;47.984;-1.586;2023-06-14T12:49:57;11.80;;;7.50;;
53977;SDS011;39886;47.984;-1.586;2023-06-14T12:52:23;17.50;;;7.80;;
53977;SDS011;39886;47.984;-1.586;2023-06-14T12:54:49;14.93;;;7.05;;
53977;SDS011;39886;47.984;-1.586;2023-06-14T12:57:15;11.45;;;7.22;;
53977;SDS011;39886;47.984;-1.586;2023-06-14T12:59:41;14.07;;;7.35;;
53977;SDS011;39886;47.984;-1.586;2023-06-14T13:02:10;10.65;;;6.95;;
53977;SDS011;39886;47.984;-1.586;2023-06-14T13:04:36;9.13;;;6.28;;
53977;SDS011;39886;47.984;-1.586;2023-06-14T13:07:02;10.90;;;6.68;;
53977;SDS011;39886;47.984;-1.586;2023-06-14T13:09:28;12.90;;;6.82;;
53977;SDS011;39886;47.984;-1.586;2023-06-14T13:11:53;9.85;;;6.78;;
53977;SDS011;39886;47.984;-1.586;2023-06-14T13:14:19;10.02;;;6.90;;
53977;SDS011;39886;47.984;-1.586;2023-06-14T13:16:45;12.20;;;7.28;;
53977;SDS011;39886;47.984;-1.586;2023-06-14T13:19:10;13.32;;;7.00;;
53977;SDS011;39886;47.984;-1.586;2023-06-14T13:21:40;12.57;;;7.05;;
53977;SDS011;39886;47.984;-1.586;2023-06-14T13:24:06;9.73;;;6.72;;
53977;SDS011;39886;47.984;-1.586;2023-06-14T13:26:32;8.23;;;6.63;;
53977;SDS011;39886;47.984;-1.586;2023-06-14T13:28:58;10.00;;;7.30;;
53977;SDS011;39886;47.984;-1.586;2023-06-14T13:31:23;9.52;;;6.95;;
53977;SDS011;39886;47.984;-1.586;2023-06-14T13:33:49;8.98;;;6.20;;
53977;SDS011;39886;47.984;-1.586;2023-06-14T13:36:15;8.68;;;6.65;;
53977;SDS011;39886;47.984;-1.586;2023-06-14T13:38:41;8.93;;;6.78;;
53977;SDS011;39886;47.984;-1.586;2023-06-14T13:41:06;8.35;;;6.68;;
53977;SDS011;39886;47.984;-1.586;2023-06-14T13:43:32;8.10;;;6.45;;
53977;SDS011;39886;47.984;-1.586;2023-06-14T13:45:58;8.98;;;6.20;;
53977;SDS011;39886;47.984;-1.586;2023-06-14T13:48:24;12.52;;;6.95;;
53977;SDS011;39886;47.984;-1.586;2023-06-14T13:50:49;9.32;;;6.85;;
53977;SDS011;39886;47.984;-1.586;2023-06-14T13:53:15;9.02;;;6.80;;
53977;SDS011;39886;47.984;-1.586;2023-06-14T13:55:41;9.98;;;6.80;;
53977;SDS011;39886;47.984;-1.586;2023-06-14T13:58:06;9.13;;;6.10;;
53977;SDS011;39886;47.984;-1.586;2023-06-14T14:00:32;11.88;;;6.90;;
53977;SDS011;39886;47.984;-1.586;2023-06-14T14:02:59;10.65;;;6.30;;
53977;SDS011;39886;47.984;-1.586;2023-06-14T14:05:25;9.48;;;6.35;;
53977;SDS011;39886;47.984;-1.586;2023-06-14T14:07:55;8.70;;;6.40;;
53977;SDS011;39886;47.984;-1.586;2023-06-14T14:10:22;10.57;;;6.75;;
53977;SDS011;39886;47.984;-1.586;2023-06-14T14:12:50;6.50;;;5.80;;
53977;SDS011;39886;47.984;-1.586;2023-06-14T14:15:16;7.20;;;6.03;;
53977;SDS011;39886;47.984;-1.586;2023-06-14T14:17:42;7.68;;;6.68;;
53977;SDS011;39886;47.984;-1.586;2023-06-14T14:20:08;9.40;;;7.10;;
53977;SDS011;39886;47.984;-1.586;2023-06-14T14:22:34;7.00;;;6.13;;
53977;SDS011;39886;47.984;-1.586;2023-06-14T14:25:00;8.98;;;6.00;;
53977;SDS011;39886;47.984;-1.586;2023-06-14T14:27:26;9.07;;;6.18;;
53977;SDS011;39886;47.984;-1.586;2023-06-14T14:29:52;9.48;;;6.45;;
53977;SDS011;39886;47.984;-1.586;2023-06-14T14:32:17;9.35;;;6.38;;
53977;SDS011;39886;47.984;-1.586;2023-06-14T14:34:43;9.00;;;6.63;;
53977;SDS011;39886;47.984;-1.586;2023-06-14T14:37:09;11.35;;;6.15;;
53977;SDS011;39886;47.984;-1.586;2023-06-14T14:39:36;10.52;;;6.70;;
53977;SDS011;39886;47.984;-1.586;2023-06-14T14:42:02;8.48;;;6.80;;
53977;SDS011;39886;47.984;-1.586;2023-06-14T14:44:28;7.90;;;6.40;;
53977;SDS011;39886;47.984;-1.586;2023-06-14T14:46:53;10.27;;;6.20;;
53977;SDS011;39886;47.984;-1.586;2023-06-14T14:49:19;9.40;;;6.45;;